Vancouver, WA (98686)

3:37 PM PST on December 19, 2014 (GMT -0800)
Barberton WB7TFD | Change Station
CLOSE
Current Station
Personal Weather Station
Location: Vancouver, WA
Elevation: 230 ft
Nearby Weather Stations
Active Advisory: Areal Flood Watch

Elev 230 ft 45.70 °N, 122.63 °W | Updated 2 seconds ago

Overcast
Overcast
50.5 °F
Feels Like 50.5 °F
N
2.7
Wind Variable Wind from West
Gusts 4.7 mph

Today
High -- | Low -- °F
--% Chance of Precip.
Yesterday
High -- | Low -- °F
Precip. -- in
7:47 AM 4:28 PM
Waning Crescent, 5% visible
Pressure 30.00 in
Visibility 10.0 miles
Clouds Scattered Clouds 2700 ft
Scattered Clouds 5000 ft
Mostly Cloudy 6500 ft
Dew Point 45 °F
Humidity 81%
Rainfall 0.07 in
Snow Depth Not available.
UV 0 out of 12
Pollen .50 out of 12
Air Quality Not available.
Flu Activity Not available.
SPECI KVUO 192321Z AUTO 18005KT 10SM SCT027 SCT050 BKN065 11/06 A3000 RMK AO2 T01110056

More Conditions Fewer Conditions

Pressure 30.00 in
Visibility 10.0 miles
Clouds Scattered Clouds 2700 ft
Scattered Clouds 5000 ft
Mostly Cloudy 6500 ft
Dew Point 45 °F
Humidity 81%
Rainfall 0.07 in
Snow Depth Not available.
UV 0 out of 12
Pollen .50 out of 12
Air Quality Not available.
Flu Activity Not available.
SPECI KVUO 192321Z AUTO 18005KT 10SM SCT027 SCT050 BKN065 11/06 A3000 RMK AO2 T01110056

More Conditions Fewer Conditions

10-Day Weather Forecast

Almanac

Astronomy

Dec. 19, 2014 Rise Set
Actual Time
Civil Twilight
Nautical Twilight
Astronomical Twilight
Moon
Length of Visible Light
Length of Day
Tomorrow will be .
, % of the Moon is Illuminated

Today's Extremes

State Highs State Lows

Community

WunderPhotos

Upload Photos

1,779,073 photos uploaded!

WunderBlogs® & News

Nearby

Air Quality

  Air Quality AQ Index Pollutant
Not available.

Snow Depth

Station Depth Elevation

Earthquake Activity

City Distance Mag. Time & Date
Minimum magnitude displayed is 2.5.

Coastal Water Temperatures

Place Temperature

Nearby Weather Stations